Latest Coastal Weather Observations for Carnarvon

IDW60701

Issued at 1:55 am WST Saturday 20 September 2014 (issued every 10 minutes, with the page automatically refreshed every 10 minutes)

About coastal observations | Map of coastal stations | Coastal observations for WA | Marine services | Other Formats
Station Details ID: 006011 Name: CARNARVON AIRPORT Lat: -24.89 Lon: 113.67 Height: 4.0 m
Data from the previous 72 hours. | See also: Recent months at Carnarvon
Date/Time
WST
Temp

°C
Wind Pressure Rain
since 9am
mm
Weather Cloud Vis
km
Sea
Height
m
Swell
Dir
 
Speed
knots
Gust
knots
hPa Trend Height
m
Period
s
Dir
20/01:30am 16.8 ENE 4 5 1015.2 - 0.0 - - 10 - - - -
20/01:00am 18.0 CALM 0 0 1015.3 - 0.0 - - 10 - - - -
20/12:30am 19.3 S 5 7 1015.2 - 0.0 - - 10 - - - -
20/12:00am 19.6 S 8 9 1015.2 - 0.0 - - 10 - - - -
 
Date/Time
WST
Temp

°C
Wind Pressure Rain
since 9am
mm
Weather Cloud Vis
km
Sea
Height
m
Swell
Dir
 
Speed
knots
Gust
knots
hPa Trend Height
m
Period
s
Dir
19/11:30pm 19.9 S 7 8 1015.7 - 0.0 - - 10 - - - -
19/11:00pm 20.6 S 8 10 1016.3 - 0.0 - - 10 - - - -
19/10:30pm 21.3 S 10 12 1016.6 - 0.0 - - 10 - - - -
19/10:00pm 21.5 S 10 13 1016.6 - 0.0 - - 10 - - - -
19/09:30pm 21.6 S 10 13 1016.7 - 0.0 - - 10 - - - -
19/09:00pm 21.7 S 9 13 1016.5 - 0.0 - - 10 - - - -
19/08:30pm 21.8 SSW 9 13 1016.4 - 0.0 - - 10 - - - -
19/08:00pm 22.1 SSW 11 15 1016.2 - 0.0 - - 10 - - - -
19/07:30pm 22.2 SSW 10 12 1015.6 - 0.0 - - 10 - - - -
19/07:00pm 22.3 SW 9 11 1015.5 - 0.0 - - 10 - - - -
19/06:30pm 22.4 SW 10 13 1015.1 - 0.0 - - 10 - - - -
19/06:00pm 22.9 SW 12 16 1014.8 - 0.0 - - 10 - - - -
19/05:30pm 23.5 SSW 12 15 1014.8 - 0.0 - - 10 - - - -
19/05:00pm 23.9 SSW 14 17 1014.6 - 0.0 - - 10 - - - -
19/04:30pm 24.6 SSW 15 19 1014.7 - 0.0 - - 10 - - - -
19/04:00pm 24.9 SSW 15 18 1014.9 - 0.0 - - 10 - - - -
19/03:30pm 24.6 SSW 15 18 1014.9 - 0.0 - - 10 - - - -
19/03:00pm 24.2 SSW 16 19 1015.1 - 0.0 - - 10 - - - -
19/02:30pm 25.1 SSW 16 19 1015.0 - 0.0 - - 10 - - - -
19/02:00pm 25.1 SSW 16 21 1015.4 - 0.0 - - 10 - - - -
19/01:30pm 24.8 SSW 16 19 1015.7 - 0.0 - - 10 - - - -
19/01:00pm 24.3 SSW 15 19 1016.1 - 0.0 - - 10 - - - -
19/12:30pm 24.7 SSW 16 21 1016.5 - 0.0 - - 10 - - - -
19/12:00pm 25.5 SSW 13 16 1016.9 - 0.0 - - 10 - - - -
19/11:30am 27.6 ESE 7 11 1017.7 - 0.0 - - 10 - - - -
19/11:00am 27.1 ESE 9 13 1018.2 - 0.0 - - 10 - - - -
19/10:30am 25.4 SE 10 15 1018.7 - 0.0 - - 10 - - - -
19/10:00am 24.7 SSE 8 10 1019.1 - 0.0 - - 10 - - - -
19/09:30am 23.3 ESE 11 14 1019.5 - 0.0 - - 10 - - - -
19/09:00am 21.6 SE 11 14 1019.6 - 0.0 - - 10 - - - -
19/08:30am 20.4 SE 10 14 1019.7 - 0.0 - - 10 - - - -
19/08:00am 19.1 SE 13 17 1019.8 - 0.0 - - 10 - - - -
19/07:30am 17.8 SSE 13 17 1019.6 - 0.0 - - 10 - - - -
19/07:00am 16.9 SSE 10 13 1019.3 - 0.0 - - 10 - - - -
19/06:30am 16.2 SSE 9 12 1019.0 - 0.0 - - 10 - - - -
19/06:00am 16.0 SSE 8 11 1018.8 - 0.0 - - 10 - - - -
19/05:30am 15.2 SE 6 7 1018.6 - 0.0 - - 10 - - - -
19/05:00am 17.3 SSE 9 11 1018.3 - 0.0 - - 10 - - - -
19/04:30am 17.6 S 10 12 1018.1 - 0.0 - - 10 - - - -
19/04:00am 17.8 S 10 12 1017.9 - 0.0 - - 10 - - - -
19/03:30am 17.9 S 9 11 1017.9 - 0.0 - - 10 - - - -
19/03:00am 18.2 S 9 12 1018.1 - 0.0 - - 10 - - - -
19/02:30am 18.2 S 10 12 1018.2 - 0.0 - - 10 - - - -
19/02:00am 18.0 S 9 11 1018.3 - 0.0 - - 10 - - - -
19/01:30am 18.0 SSE 9 11 1018.6 - 0.0 - - 10 - - - -
19/01:00am 18.6 S 9 12 1018.7 - 0.0 - - 10 - - - -
19/12:30am 18.8 S 10 14 1019.1 - 0.0 - - 10 - - - -
19/12:00am 18.8 S 11 13 1019.2 - 0.0 - - 10 - - - -
 
Date/Time
WST
Temp

°C
Wind Pressure Rain
since 9am
mm
Weather Cloud Vis
km
Sea
Height
m
Swell
Dir
 
Speed
knots
Gust
knots
hPa Trend Height
m
Period
s
Dir
18/11:30pm 19.0 S 11 15 1019.4 - 0.0 - - 10 - - - -
18/11:00pm 19.4 S 13 18 1019.6 - 0.0 - - 10 - - - -
18/10:30pm 19.8 S 14 19 1019.9 - 0.0 - - 10 - - - -
18/10:00pm 20.1 S 14 18 1019.9 - 0.0 - - 10 - - - -
18/09:30pm 20.2 S 14 19 1019.9 - 0.0 - - 10 - - - -
18/09:00pm 20.5 S 15 21 1019.8 - 0.0 - - 10 - - - -
18/08:30pm 20.7 S 15 20 1019.6 - 0.0 - - 10 - - - -
18/08:00pm 20.8 S 15 22 1019.2 - 0.0 - - 10 - - - -
18/07:30pm 21.0 SSW 15 21 1018.9 - 0.0 - - 10 - - - -
18/07:00pm 21.2 SSW 15 20 1018.7 - 0.0 - - 10 - - - -
18/06:30pm 21.6 SSW 15 19 1018.3 - 0.0 - - 10 - - - -
18/06:00pm 22.1 SSW 17 20 1018.0 - 0.0 - - 10 - - - -
18/05:30pm 22.9 SSW 13 18 1017.6 - 0.0 - - 10 - - - -
18/05:00pm 23.4 SW 13 17 1017.5 - 0.0 - - 10 - - - -
18/04:30pm 23.3 SW 15 20 1017.3 - 0.0 - - 10 - - - -
18/04:00pm 23.9 SW 15 19 1017.1 - 0.0 - - 10 - - - -
18/03:30pm 23.6 SW 13 17 1017.0 - 0.0 - - 10 - - - -
18/03:00pm 24.4 SW 14 17 1016.8 R 0.0 Fine Clear 30 - - - -
18/02:30pm 23.8 SW 13 17 1016.8 - 0.0 - - 10 - - - -
18/02:00pm 24.4 SSW 13 17 1017.0 - 0.0 - - 10 - - - -
18/01:30pm 23.6 SSW 12 16 1017.3 - 0.0 - - 10 - - - -
18/01:00pm 23.9 SSW 13 16 1017.6 - 0.0 - - 10 - - - -
18/12:30pm 23.7 SSW 12 16 1017.8 - 0.0 - - 10 - - - -
18/12:00pm 24.0 SSW 13 18 1018.3 R 0.0 Haze Clear 28 - - - -
18/11:30am 23.3 SSW 15 18 1018.6 - 0.0 - - 10 - - - -
18/11:00am 23.1 SSW 14 16 1018.9 - 0.0 - Mostly clear 10 - - - -
18/10:30am 22.5 SSW 13 17 1018.8 - 0.0 - Mostly clear 10 - - - -
18/10:00am 22.7 S 13 15 1019.0 - 0.0 - Mostly clear 10 - - - -
18/09:30am 22.4 S 14 17 1019.0 - 0.0 - Mostly clear 10 - - - -
18/09:00am 22.2 S 13 17 1019.1 R 0.0 Haze Mostly clear 25 - - - -
18/08:30am 21.4 S 13 16 1018.9 - 0.0 - Partly cloudy 10 - - - -
18/08:00am 21.2 S 13 16 1018.6 - 0.0 - Partly cloudy 10 - - - -
18/07:30am 20.3 S 10 14 1018.2 - 0.0 - Partly cloudy 10 - - - -
18/07:00am 19.6 S 9 12 1017.7 - 0.0 - Partly cloudy 10 - - - -
18/06:30am 19.4 S 11 16 1017.6 - 0.0 - Partly cloudy 10 - - - -
18/06:00am 19.2 S 10 14 1017.6 - 0.0 - Cloudy 10 - - - -
18/05:30am 19.6 S 12 15 1017.3 - 0.0 - Partly cloudy 10 - - - -
18/05:00am 19.6 S 11 15 1017.2 - 0.0 - Partly cloudy 10 - - - -
18/04:30am 19.6 S 13 16 1017.0 - 0.0 - Partly cloudy 10 - - - -
18/04:00am 19.4 S 11 15 1016.7 - 0.0 - Partly cloudy 10 - - - -
18/03:30am 19.3 S 11 15 1016.7 - 0.0 - Partly cloudy 10 - - - -
18/03:00am 19.7 S 13 16 1016.8 - 0.0 - Cloudy 10 - - - -
18/02:30am 19.9 S 13 17 1016.8 - 0.0 - Partly cloudy 10 - - - -
18/02:00am 20.0 S 12 15 1016.9 - 0.0 - Partly cloudy 10 - - - -
18/01:30am 20.2 S 13 17 1017.0 - 0.0 - Partly cloudy 10 - - - -
18/01:00am 20.3 S 12 16 1017.1 - 0.0 - Partly cloudy 10 - - - -
18/12:30am 20.3 S 11 15 1017.3 - 0.0 - Partly cloudy 10 - - - -
18/12:00am 20.4 S 13 17 1017.3 - 0.0 - Cloudy 10 - - - -
 
Date/Time
WST
Temp

°C
Wind Pressure Rain
since 9am
mm
Weather Cloud Vis
km
Sea
Height
m
Swell
Dir
 
Speed
knots
Gust
knots
hPa Trend Height
m
Period
s
Dir
17/11:30pm 20.3 S 14 18 1017.3 - 0.0 - Partly cloudy 10 - - - -
17/11:00pm 20.6 S 15 20 1017.4 - 0.0 - Partly cloudy 10 - - - -
17/10:30pm 20.7 S 14 18 1017.7 - 0.0 - Partly cloudy 10 - - - -
17/10:00pm 21.1 S 16 19 1017.7 - 0.0 - Partly cloudy 10 - - - -
17/09:30pm 21.0 S 17 22 1017.6 - 0.0 - Partly cloudy 10 - - - -
17/09:00pm 21.2 SSW 17 22 1017.4 - 0.0 - Cloudy 10 - - - -
17/08:30pm 21.3 SSW 16 20 1017.3 - 0.0 - Partly cloudy 10 - - - -
17/08:00pm 21.3 SSW 15 20 1016.9 - 0.0 - Partly cloudy 10 - - - -
17/07:30pm 21.5 SSW 16 21 1016.4 - 0.0 - - 10 - - - -
17/07:00pm 21.6 SSW 16 21 1016.0 - 0.0 - - 10 - - - -
17/06:30pm 21.9 SSW 18 24 1015.7 - 0.0 - - 10 - - - -
17/06:00pm 22.5 SSW 15 21 1015.3 - 0.0 - - 10 - - - -
17/05:30pm 23.0 SSW 16 21 1015.0 - 0.0 - - 10 - - - -
17/05:00pm 23.5 SSW 17 22 1014.4 - 0.0 - - 10 - - - -
17/04:30pm 23.8 SSW 16 20 1013.9 - 0.0 - - 10 - - - -
17/04:00pm 24.1 SSW 17 21 1013.8 - 0.0 - - 10 - - - -
17/03:30pm 24.8 SSW 15 21 1013.7 - 0.0 - - 10 - - - -
17/03:00pm 24.7 SW 16 20 1013.7 - 0.0 - - 10 - - - -
17/02:30pm 25.4 SW 16 21 1013.8 - 0.0 - - 10 - - - -
17/02:00pm 24.9 SW 15 19 1014.1 - 0.0 - - 10 - - - -
17/01:30pm 25.0 SW 14 18 1014.1 - 0.0 - - 10 - - - -
17/01:00pm 24.9 SSW 15 19 1014.3 - 0.0 - - 10 - - - -
17/12:30pm 25.1 SSW 16 20 1014.5 - 0.0 - - 10 - - - -
17/12:00pm 24.4 SSW 15 20 1014.7 - 0.0 - - 10 - - - -
17/11:30am 24.0 SSW 15 18 1014.9 - 0.0 - - 10 - - - -
17/11:00am 24.1 SSW 15 19 1015.1 - 0.0 - - 10 - - - -
17/10:30am 23.7 SSW 13 17 1015.2 - 0.0 - - 10 - - - -
17/10:00am 23.7 SSW 12 16 1015.2 - 0.0 - Partly cloudy 10 - - - -
17/09:30am 23.2 SSW 12 15 1015.1 - 0.0 - Partly cloudy 10 - - - -
17/09:00am 22.9 S 13 16 1014.7 - 0.0 - Cloudy 10 - - - -
17/08:30am 22.4 S 11 15 1014.4 - 0.0 - Partly cloudy 10 - - - -
17/08:00am 22.2 S 12 14 1014.0 - 0.0 - Partly cloudy 10 - - - -
17/07:30am 21.6 SSW 11 15 1013.6 - 0.0 - Partly cloudy 10 - - - -
17/07:00am 21.5 SSW 13 17 1013.3 - 0.0 - Cloudy 10 - - - -
17/06:30am 21.5 SSW 13 16 1013.1 - 0.0 - Partly cloudy 10 - - - -
17/06:00am 21.5 SSW 13 17 1012.6 - 0.0 - Cloudy 10 - - - -
17/05:30am 21.4 SSW 12 16 1012.2 - 0.0 - Partly cloudy 10 - - - -
17/05:00am 21.4 SSW 12 15 1011.9 - 0.0 - Partly cloudy 10 - - - -
17/04:30am 21.2 SSW 13 16 1011.6 - 0.0 - Partly cloudy 10 - - - -
17/04:00am 21.3 SSW 13 16 1011.3 - 0.0 - Partly cloudy 10 - - - -
17/03:30am 21.3 SSW 13 17 1011.4 - 0.0 - Partly cloudy 10 - - - -
17/03:00am 21.2 SSW 12 16 1011.6 - 0.0 - Cloudy 10 - - - -
17/02:30am 21.1 SSW 12 16 1011.7 - 0.0 - Partly cloudy 10 - - - -
17/02:00am 21.2 SSW 13 17 1011.7 - 0.0 - - 10 - - - -

Other Formats:

Comma delimited format used in spreadsheet applications
http://www.bom.gov.au/fwo/IDW60701/IDW60701.94300.axf

JavaScript Object Notation format (JSON) in row-major order
http://www.bom.gov.au/fwo/IDW60701/IDW60701.94300.json